Terminal Aerodrome Forecast
Issued by NWS

Home | Current Version | Previous Version | Text Only | Print | Product List | Glossary On
Versions: 1 2 3 4 5 6 7 8 9 10 11 12 13 14 15 16 17 18 19 20 21 22 23 24 25 26 27 28 29 30
000
FTUS42 KGSP 051123
TAFAND
TAF
KAND 051123Z 0512/0612 21006KT P6SM SCT010 BKN100
     FM051800 21010KT P6SM VCSH BKN050
     FM052000 21012G20KT P6SM VCSH BKN050 PROB30 0521/0524 4SM TSRA
      BKN040CB
     FM060000 21005KT P6SM SCT120 BKN250=

USA.gov is the U.S. government's official web portal to all federal, state and local government web resources and services.